createdAt,value
2018-03-30T00:02:08.399Z,1.73
2018-03-30T00:04:36.701Z,1.84
2018-03-30T00:07:06.896Z,1.84
2018-03-30T00:09:56.791Z,1.87
2018-03-30T00:12:25.141Z,1.83
2018-03-30T00:14:53.486Z,1.76
2018-03-30T00:17:22.596Z,1.74
2018-03-30T00:19:50.934Z,1.75
2018-03-30T00:22:19.310Z,1.81
2018-03-30T00:24:47.662Z,1.81
2018-03-30T00:27:15.986Z,1.74
2018-03-30T00:29:45.118Z,1.69
2018-03-30T00:32:13.462Z,1.67
2018-03-30T00:34:42.574Z,1.90
2018-03-30T00:37:10.893Z,1.88
2018-03-30T00:39:40.051Z,1.77
2018-03-30T00:42:09.130Z,1.74
2018-03-30T00:44:38.244Z,1.77
2018-03-30T00:47:06.570Z,1.76
2018-03-30T00:49:34.936Z,1.69
2018-03-30T00:52:03.267Z,1.67
2018-03-30T00:54:31.610Z,1.74
2018-03-30T00:56:59.970Z,1.71
2018-03-30T00:59:28.325Z,1.63
2018-03-30T01:01:56.650Z,1.68
2018-03-30T01:04:25.782Z,1.68
2018-03-30T01:06:54.121Z,1.61
2018-03-30T01:09:22.486Z,1.48
2018-03-30T01:11:50.850Z,1.45
2018-03-30T01:14:19.177Z,1.47
2018-03-30T01:16:47.538Z,1.39
2018-03-30T01:19:16.657Z,1.36
2018-03-30T01:21:45.014Z,1.32
2018-03-30T01:24:14.133Z,1.29
2018-03-30T01:26:42.445Z,1.29
2018-03-30T01:29:11.581Z,1.28
2018-03-30T01:31:40.849Z,1.23
2018-03-30T01:34:09.170Z,1.24
2018-03-30T01:36:38.310Z,1.25
2018-03-30T01:39:06.625Z,1.23
2018-03-30T01:41:34.993Z,1.30
2018-03-30T01:44:03.312Z,1.32
2018-03-30T01:46:31.661Z,1.27
2018-03-30T01:48:59.978Z,1.36
2018-03-30T01:51:28.314Z,1.33
2018-03-30T01:53:56.676Z,1.31
2018-03-30T01:56:24.988Z,1.33
2018-03-30T01:58:53.726Z,1.24
2018-03-30T02:01:22.062Z,1.13
2018-03-30T02:03:50.415Z,1.19
2018-03-30T02:06:19.529Z,1.11
2018-03-30T02:08:47.852Z,1.07
2018-03-30T02:11:16.192Z,1.13
2018-03-30T02:13:44.522Z,1.03
2018-03-30T02:16:12.889Z,1.09
2018-03-30T02:18:41.206Z,1.06
2018-03-30T02:21:09.529Z,1.12
2018-03-30T02:23:37.894Z,1.07
2018-03-30T02:26:06.209Z,1.12
2018-03-30T02:28:34.546Z,1.14
2018-03-30T02:31:02.894Z,1.20
2018-03-30T02:33:32.047Z,1.19
2018-03-30T02:36:00.380Z,1.18
2018-03-30T02:38:28.705Z,0.98
2018-03-30T02:40:57.053Z,1.00
2018-03-30T02:43:26.137Z,0.99
2018-03-30T02:45:54.481Z,0.98
2018-03-30T02:48:23.573Z,0.89
2018-03-30T02:50:51.935Z,0.86
2018-03-30T02:53:20.257Z,0.96
2018-03-30T02:55:48.581Z,0.92
2018-03-30T02:58:16.926Z,0.85
2018-03-30T03:00:45.251Z,0.94
2018-03-30T03:03:13.609Z,0.91
2018-03-30T03:05:41.926Z,0.82
2018-03-30T03:08:11.079Z,0.71
2018-03-30T03:10:39.392Z,0.71
2018-03-30T03:13:07.705Z,0.71
2018-03-30T03:15:36.077Z,0.67
2018-03-30T03:18:04.430Z,0.67
2018-03-30T03:20:33.146Z,0.62
2018-03-30T03:23:01.512Z,0.64
2018-03-30T03:25:29.879Z,0.61
2018-03-30T03:27:58.995Z,0.56
2018-03-30T03:30:27.398Z,0.58
2018-03-30T03:32:55.726Z,0.54
2018-03-30T03:35:24.840Z,0.50
2018-03-30T03:37:53.159Z,0.45
2018-03-30T03:40:21.515Z,0.42
2018-03-30T03:42:49.921Z,0.35
2018-03-30T03:45:19.008Z,0.29
2018-03-30T03:47:47.360Z,0.23
2018-03-30T03:50:15.697Z,0.20
2018-03-30T03:52:44.828Z,0.19
2018-03-30T03:55:13.163Z,0.18
2018-03-30T03:57:41.532Z,0.21
2018-03-30T04:00:09.856Z,0.13
2018-03-30T04:02:38.171Z,0.09
2018-03-30T04:05:06.533Z,0.13
2018-03-30T04:07:34.877Z,0.06
2018-03-30T04:10:03.228Z,0.11
2018-03-30T04:12:31.581Z,0.12
2018-03-30T04:14:59.901Z,0.14
2018-03-30T04:17:29.034Z,0.09
2018-03-30T04:19:57.365Z,0.06
2018-03-30T04:22:26.460Z,0.06
2018-03-30T04:24:55.598Z,-0.01
2018-03-30T04:27:32.525Z,-0.06
2018-03-30T04:30:00.849Z,-0.10
2018-03-30T04:32:29.185Z,-0.10
2018-03-30T04:34:58.308Z,-0.09
2018-03-30T04:37:26.636Z,-0.05
2018-03-30T04:39:54.955Z,-0.04
2018-03-30T04:42:24.084Z,-0.03
2018-03-30T04:44:52.448Z,-0.06
2018-03-30T04:47:20.820Z,-0.06
2018-03-30T04:49:49.134Z,-0.04
2018-03-30T04:52:17.472Z,-0.01
2018-03-30T04:54:45.829Z,0.00
2018-03-30T04:57:14.955Z,0.08
2018-03-30T04:59:43.278Z,0.16
2018-03-30T05:02:11.612Z,0.18
2018-03-30T05:04:39.984Z,0.22
2018-03-30T05:07:08.318Z,0.24
2018-03-30T05:09:37.460Z,0.29
2018-03-30T05:12:05.780Z,0.30
2018-03-30T05:14:34.155Z,0.30
2018-03-30T05:17:02.493Z,0.34
2018-03-30T05:19:31.632Z,0.37
2018-03-30T05:22:01.118Z,0.40
2018-03-30T05:24:29.479Z,0.44
2018-03-30T05:26:57.817Z,0.51
2018-03-30T05:29:26.908Z,0.58
2018-03-30T05:31:56.041Z,0.68
2018-03-30T05:34:24.374Z,0.75
2018-03-30T05:36:52.795Z,0.85
2018-03-30T05:39:21.127Z,0.95
2018-03-30T05:41:50.241Z,1.10
2018-03-30T05:44:19.357Z,1.26
2018-03-30T05:46:48.486Z,1.41
2018-03-30T05:49:16.835Z,1.54
2018-03-30T05:51:45.178Z,1.70
2018-03-30T05:54:14.271Z,1.82
2018-03-30T05:56:43.382Z,1.97
2018-03-30T05:59:11.700Z,2.12
2018-03-30T06:01:40.038Z,2.35
2018-03-30T06:04:08.388Z,2.50
2018-03-30T06:06:37.487Z,2.69
2018-03-30T06:09:06.607Z,2.97
2018-03-30T06:11:34.992Z,3.27
2018-03-30T06:14:03.305Z,3.41
2018-03-30T06:16:31.661Z,3.52
2018-03-30T06:19:00.032Z,3.62
2018-03-30T06:21:28.341Z,3.73
2018-03-30T06:23:56.714Z,3.91
2018-03-30T06:26:25.069Z,4.14
2018-03-30T06:28:53.675Z,4.52
2018-03-30T06:31:21.996Z,4.75
2018-03-30T06:33:51.132Z,4.98
2018-03-30T06:36:19.449Z,5.16
2018-03-30T06:38:47.811Z,5.32
2018-03-30T06:41:16.145Z,5.26
2018-03-30T06:43:44.470Z,5.48
2018-03-30T06:46:12.807Z,5.82
2018-03-30T06:48:41.127Z,6.15
2018-03-30T06:51:09.459Z,6.26
2018-03-30T06:53:37.770Z,6.43
2018-03-30T06:56:06.151Z,6.41
2018-03-30T06:58:34.479Z,6.61
2018-03-30T07:01:02.979Z,6.76
2018-03-30T07:03:31.337Z,6.81
2018-03-30T07:05:59.701Z,6.61
2018-03-30T07:08:29.211Z,6.48
2018-03-30T07:10:59.040Z,6.54
2018-03-30T07:13:27.386Z,6.65
2018-03-30T07:15:56.483Z,6.93
2018-03-30T07:18:26.321Z,7.20
2018-03-30T07:20:54.684Z,7.43
2018-03-30T07:23:23.499Z,7.30
2018-03-30T07:25:52.236Z,7.33
2018-03-30T07:28:20.568Z,7.53
2018-03-30T07:30:49.318Z,7.46
2018-03-30T07:33:18.420Z,7.39
2018-03-30T07:35:47.544Z,7.30
2018-03-30T07:38:16.261Z,8.07
2018-03-30T07:40:44.582Z,8.03
2018-03-30T07:43:12.917Z,7.92
2018-03-30T07:45:41.283Z,8.18
2018-03-30T07:48:09.623Z,8.26
2018-03-30T07:50:37.989Z,8.18
2018-03-30T07:53:06.331Z,7.94
2018-03-30T07:55:34.679Z,7.68
2018-03-30T07:58:03.038Z,7.60
2018-03-30T08:00:31.398Z,7.61
2018-03-30T08:03:01.238Z,7.60
2018-03-30T08:05:30.395Z,7.76
2018-03-30T08:07:59.503Z,8.20
2018-03-30T08:10:28.661Z,8.48
2018-03-30T08:12:56.986Z,8.62
2018-03-30T08:15:25.331Z,8.82
2018-03-30T08:17:53.660Z,8.81
2018-03-30T08:20:22.025Z,8.90
2018-03-30T08:22:50.372Z,9.43
2018-03-30T08:25:18.702Z,9.12
2018-03-30T08:27:47.071Z,9.01
2018-03-30T08:30:15.473Z,9.27
2018-03-30T08:32:43.849Z,9.22
2018-03-30T08:35:12.175Z,8.77
2018-03-30T08:37:40.542Z,9.34
2018-03-30T08:40:09.641Z,9.52
2018-03-30T08:42:38.770Z,9.60
2018-03-30T08:45:07.158Z,9.63
2018-03-30T08:47:35.502Z,9.87
2018-03-30T08:50:04.141Z,9.98
2018-03-30T08:52:32.514Z,10.01
2018-03-30T08:55:00.848Z,9.99
2018-03-30T08:57:29.262Z,9.99
2018-03-30T08:59:57.616Z,9.79
2018-03-30T09:02:25.956Z,9.91
2018-03-30T09:04:54.311Z,10.06
2018-03-30T09:07:22.678Z,10.10
2018-03-30T09:09:51.005Z,9.92
2018-03-30T09:12:19.380Z,9.73
2018-03-30T09:14:48.838Z,9.48
2018-03-30T09:17:17.225Z,9.50
2018-03-30T09:19:45.568Z,9.48
2018-03-30T09:22:13.931Z,9.33
2018-03-30T09:24:42.294Z,8.89
2018-03-30T09:27:11.470Z,8.49
2018-03-30T09:29:54.226Z,8.75
2018-03-30T09:32:22.608Z,8.97
2018-03-30T09:34:50.965Z,8.92
2018-03-30T09:37:19.302Z,9.55
2018-03-30T09:39:47.620Z,9.87
2018-03-30T09:42:15.997Z,9.95
2018-03-30T09:44:45.173Z,10.09
2018-03-30T09:47:13.480Z,9.57
2018-03-30T09:49:41.853Z,9.81
2018-03-30T09:52:10.952Z,9.95
2018-03-30T09:54:39.316Z,9.38
2018-03-30T09:57:08.795Z,9.12
2018-03-30T09:59:37.170Z,9.40
2018-03-30T10:02:05.997Z,9.52
2018-03-30T10:04:35.707Z,9.24
2018-03-30T10:07:05.529Z,9.27
2018-03-30T10:09:33.931Z,9.22
2018-03-30T10:12:02.294Z,9.41
2018-03-30T10:14:30.662Z,9.76
2018-03-30T10:16:59.009Z,9.62
2018-03-30T10:19:27.367Z,9.72
2018-03-30T10:21:56.057Z,9.79
2018-03-30T10:24:24.417Z,9.94
2018-03-30T10:26:52.764Z,10.00
2018-03-30T10:29:21.117Z,9.98
2018-03-30T10:31:50.230Z,9.93
2018-03-30T10:34:18.587Z,9.91
2018-03-30T10:36:48.053Z,9.77
2018-03-30T10:39:16.418Z,9.70
2018-03-30T10:41:44.783Z,9.60
2018-03-30T10:44:13.101Z,9.50
2018-03-30T10:46:41.454Z,9.56
2018-03-30T10:49:10.026Z,9.77
2018-03-30T10:51:38.394Z,10.04
2018-03-30T10:54:06.707Z,10.15
2018-03-30T10:56:35.025Z,10.25
2018-03-30T10:59:04.516Z,10.26
2018-03-30T11:01:32.857Z,10.17
2018-03-30T11:04:01.204Z,10.30
2018-03-30T11:06:29.559Z,10.37
2018-03-30T11:08:57.949Z,10.45
2018-03-30T11:11:26.295Z,10.45
2018-03-30T11:13:55.467Z,10.40
2018-03-30T11:16:23.988Z,10.31
2018-03-30T11:18:53.132Z,10.38
2018-03-30T11:21:21.573Z,10.39
2018-03-30T11:23:50.155Z,10.35
2018-03-30T11:26:18.561Z,10.43
2018-03-30T11:28:46.962Z,10.39
2018-03-30T11:31:15.337Z,10.38
2018-03-30T11:33:43.691Z,10.47
2018-03-30T11:36:12.013Z,10.49
2018-03-30T11:38:40.378Z,10.54
2018-03-30T11:41:08.745Z,10.55
2018-03-30T11:43:37.110Z,10.57
2018-03-30T11:46:05.446Z,10.67
2018-03-30T11:48:34.592Z,10.73
2018-03-30T11:51:02.965Z,10.72
2018-03-30T11:53:31.333Z,10.77
2018-03-30T11:55:59.755Z,10.73
2018-03-30T11:58:28.092Z,10.64
2018-03-30T12:00:56.455Z,10.70
2018-03-30T12:03:24.783Z,10.76
2018-03-30T12:05:53.220Z,10.83
2018-03-30T12:08:21.597Z,10.93
2018-03-30T12:10:49.936Z,10.97
2018-03-30T12:13:18.288Z,11.03
2018-03-30T12:15:46.628Z,11.00
2018-03-30T12:18:15.065Z,11.08
2018-03-30T12:20:44.204Z,11.09
2018-03-30T12:23:12.568Z,11.13
2018-03-30T12:25:40.904Z,11.07
2018-03-30T12:28:09.242Z,11.09
2018-03-30T12:30:37.613Z,11.11
2018-03-30T12:33:05.930Z,11.30
2018-03-30T12:35:34.303Z,11.31
2018-03-30T12:38:02.644Z,11.42
2018-03-30T12:40:31.024Z,11.33
2018-03-30T12:42:59.410Z,11.24
2018-03-30T12:45:27.793Z,11.28
2018-03-30T12:47:56.157Z,11.43
2018-03-30T12:50:24.504Z,11.52
2018-03-30T12:52:53.628Z,11.52
2018-03-30T12:55:21.942Z,11.83
2018-03-30T12:57:50.325Z,11.88
2018-03-30T13:00:19.538Z,11.84
2018-03-30T13:02:47.891Z,11.99
2018-03-30T13:05:16.222Z,11.84
2018-03-30T13:07:45.368Z,11.77
2018-03-30T13:10:13.687Z,11.64
2018-03-30T13:12:42.780Z,11.86
2018-03-30T13:15:11.139Z,11.79
2018-03-30T13:17:39.510Z,11.79
2018-03-30T13:20:07.896Z,11.83
2018-03-30T13:22:36.250Z,11.80
2018-03-30T13:25:04.611Z,11.83
2018-03-30T13:27:32.952Z,11.99
2018-03-30T13:30:02.182Z,11.96
2018-03-30T13:32:30.682Z,11.93
2018-03-30T13:34:59.828Z,11.96
2018-03-30T13:37:28.914Z,12.05
2018-03-30T13:39:57.254Z,12.12
2018-03-30T13:42:25.625Z,12.06
2018-03-30T13:44:53.976Z,12.04
2018-03-30T13:47:22.292Z,12.23
2018-03-30T13:49:50.657Z,12.15
2018-03-30T13:52:26.559Z,12.29
2018-03-30T13:54:55.660Z,12.38
2018-03-30T13:57:40.300Z,12.35
2018-03-30T14:00:16.828Z,12.36
2018-03-30T14:02:52.414Z,12.42
2018-03-30T14:05:24.399Z,12.47
2018-03-30T14:11:11.015Z,12.50
2018-03-30T14:13:40.140Z,12.41
2018-03-30T14:19:36.318Z,12.61
2018-03-30T14:22:12.628Z,12.74
2018-03-30T14:24:42.631Z,12.60
2018-03-30T14:27:28.197Z,12.84
2018-03-30T14:33:26.092Z,13.74
2018-03-30T14:36:11.655Z,13.55
2018-03-30T14:41:42.050Z,12.86
2018-03-30T14:44:17.731Z,12.91
2018-03-30T14:46:55.355Z,12.95
2018-03-30T14:49:26.314Z,12.84
2018-03-30T14:52:03.029Z,13.00
2018-03-30T14:54:35.660Z,13.04
2018-03-30T14:57:21.291Z,12.97
2018-03-30T14:59:57.014Z,13.11
2018-03-30T15:02:26.888Z,12.91
2018-03-30T15:05:01.842Z,12.90
2018-03-30T15:07:38.689Z,12.86
2018-03-30T15:10:19.464Z,12.87
2018-03-30T15:12:59.588Z,12.81
2018-03-30T15:15:36.289Z,12.83
2018-03-30T15:18:06.176Z,12.75
2018-03-30T15:20:37.067Z,12.74
2018-03-30T15:23:14.067Z,12.71
2018-03-30T15:25:52.507Z,12.62
2018-03-30T15:28:26.647Z,12.61
2018-03-30T15:31:13.489Z,12.62
2018-03-30T15:34:05.803Z,12.57
2018-03-30T15:39:40.483Z,12.37
2018-03-30T15:42:10.215Z,12.28
2018-03-30T15:44:43.090Z,12.25
2018-03-30T15:47:11.718Z,12.32
2018-03-30T15:49:43.259Z,12.34
2018-03-30T15:52:15.283Z,12.29
2018-03-30T15:54:43.797Z,12.22
2018-03-30T16:00:01.098Z,12.10
2018-03-30T16:05:58.574Z,12.05
2018-03-30T16:08:30.085Z,12.06
2018-03-30T16:11:29.128Z,12.12
2018-03-30T16:14:01.796Z,12.08
2018-03-30T16:16:34.141Z,12.01
2018-03-30T16:19:03.695Z,11.85
2018-03-30T16:21:33.404Z,11.87
2018-03-30T16:24:01.144Z,11.99
2018-03-30T16:26:41.887Z,12.03
2018-03-30T16:29:22.807Z,12.08
2018-03-30T16:31:50.731Z,12.08
2018-03-30T16:34:18.262Z,12.13
2018-03-30T16:36:45.802Z,12.16
2018-03-30T16:39:14.171Z,12.18
2018-03-30T16:41:42.482Z,12.11
2018-03-30T16:44:10.277Z,12.12
2018-03-30T16:46:37.907Z,12.10
2018-03-30T16:49:06.231Z,12.12
2018-03-30T16:51:33.913Z,12.11
2018-03-30T16:54:01.546Z,12.02
2018-03-30T16:56:30.426Z,11.92
2018-03-30T16:58:58.145Z,11.81
2018-03-30T17:01:26.543Z,11.73
2018-03-30T17:03:54.201Z,11.68
2018-03-30T17:06:21.783Z,11.57
2018-03-30T17:08:49.410Z,11.42
2018-03-30T17:11:17.218Z,11.33
2018-03-30T17:13:44.974Z,11.28
2018-03-30T17:16:13.001Z,11.04
2018-03-30T17:18:40.687Z,10.83
2018-03-30T17:21:08.204Z,10.80
2018-03-30T17:23:35.800Z,10.64
2018-03-30T17:26:03.358Z,10.62
2018-03-30T17:28:31.294Z,10.55
2018-03-30T17:30:58.841Z,10.29
2018-03-30T17:33:26.413Z,10.28
2018-03-30T17:35:54.024Z,10.13
2018-03-30T17:38:22.360Z,10.11
2018-03-30T17:40:51.373Z,10.10
2018-03-30T17:43:19.562Z,10.17
2018-03-30T17:45:47.209Z,10.02
2018-03-30T17:48:14.815Z,9.90
2018-03-30T17:50:43.105Z,9.96
2018-03-30T17:53:10.654Z,9.74
2018-03-30T17:55:38.629Z,9.65
2018-03-30T17:58:08.919Z,9.63
2018-03-30T18:00:36.665Z,9.51
2018-03-30T18:03:04.597Z,9.43
2018-03-30T18:05:32.942Z,9.20
2018-03-30T18:08:00.497Z,9.21
2018-03-30T18:10:29.670Z,9.20
2018-03-30T18:12:57.216Z,9.06
2018-03-30T18:15:24.742Z,8.80
2018-03-30T18:17:52.318Z,8.83
2018-03-30T18:20:19.860Z,8.57
2018-03-30T18:22:49.170Z,8.62
2018-03-30T18:25:18.317Z,8.42
2018-03-30T18:27:45.910Z,8.32
2018-03-30T18:30:13.578Z,8.27
2018-03-30T18:32:42.792Z,8.28
2018-03-30T18:35:10.340Z,8.26
2018-03-30T18:37:38.959Z,8.23
2018-03-30T18:40:07.193Z,8.33
2018-03-30T18:42:35.065Z,8.34
2018-03-30T18:45:02.949Z,8.24
2018-03-30T18:47:32.097Z,8.21
2018-03-30T18:50:00.456Z,8.19
2018-03-30T18:52:28.804Z,8.07
2018-03-30T18:54:56.421Z,8.15
2018-03-30T18:57:24.771Z,8.14
2018-03-30T18:59:52.325Z,8.13
2018-03-30T19:02:20.643Z,8.18
2018-03-30T19:04:48.204Z,8.08
2018-03-30T19:07:16.541Z,8.13
2018-03-30T19:09:44.075Z,8.15
2018-03-30T19:12:11.662Z,8.11
2018-03-30T19:14:39.206Z,8.06
2018-03-30T19:17:08.350Z,8.01
2018-03-30T19:19:37.794Z,7.81
2018-03-30T19:22:05.346Z,7.90
2018-03-30T19:24:32.930Z,7.88
2018-03-30T19:27:00.464Z,7.79
2018-03-30T19:29:27.994Z,7.85
2018-03-30T19:31:56.324Z,7.78
2018-03-30T19:34:24.612Z,7.72
2018-03-30T19:36:52.212Z,7.62
2018-03-30T19:39:20.230Z,7.52
2018-03-30T19:41:48.650Z,7.44
2018-03-30T19:44:17.803Z,7.33
2018-03-30T19:46:45.386Z,7.35
2018-03-30T19:49:12.999Z,7.36
2018-03-30T19:51:40.542Z,7.28
2018-03-30T19:54:08.092Z,7.30
2018-03-30T19:56:35.645Z,7.14
2018-03-30T19:59:03.946Z,7.13
2018-03-30T20:01:31.654Z,7.07
2018-03-30T20:03:59.985Z,7.11
2018-03-30T20:06:29.232Z,7.10
2018-03-30T20:08:56.698Z,7.11
2018-03-30T20:11:24.831Z,7.01
2018-03-30T20:13:53.190Z,6.89
2018-03-30T20:16:20.755Z,6.97
2018-03-30T20:18:48.991Z,6.88
2018-03-30T20:21:17.293Z,6.86
2018-03-30T20:23:44.844Z,6.77
2018-03-30T20:26:12.381Z,6.71
2018-03-30T20:28:41.121Z,6.52
2018-03-30T20:31:08.685Z,6.56
2018-03-30T20:33:37.016Z,6.42
2018-03-30T20:36:04.583Z,6.39
2018-03-30T20:38:32.518Z,6.45
2018-03-30T20:41:00.680Z,6.30
2018-03-30T20:43:28.195Z,6.37
2018-03-30T20:45:56.513Z,6.47
2018-03-30T20:48:24.065Z,6.31
2018-03-30T20:50:51.592Z,6.22
2018-03-30T20:53:19.112Z,6.13
2018-03-30T20:55:47.453Z,6.14
2018-03-30T20:58:14.974Z,6.15
2018-03-30T21:00:42.535Z,6.07
2018-03-30T21:03:10.102Z,5.95
2018-03-30T21:05:37.631Z,5.74
2018-03-30T21:08:05.947Z,5.72
2018-03-30T21:10:33.473Z,5.99
2018-03-30T21:13:01.802Z,5.91
2018-03-30T21:15:29.332Z,5.95
2018-03-30T21:17:56.907Z,5.82
2018-03-30T21:20:25.563Z,5.63
2018-03-30T21:22:53.082Z,5.69
2018-03-30T21:25:20.644Z,5.81
2018-03-30T21:27:48.778Z,5.89
2018-03-30T21:30:16.320Z,5.85
2018-03-30T21:32:45.412Z,5.76
2018-03-30T21:35:13.002Z,5.82
2018-03-30T21:37:40.546Z,5.80
2018-03-30T21:40:08.111Z,5.77
2018-03-30T21:42:35.680Z,5.85
2018-03-30T21:45:03.242Z,5.70
2018-03-30T21:47:30.791Z,5.83
2018-03-30T21:49:58.360Z,5.90
2018-03-30T21:52:25.928Z,5.78
2018-03-30T21:54:53.491Z,5.63
2018-03-30T21:57:21.006Z,5.71
2018-03-30T21:59:48.600Z,5.71
2018-03-30T22:02:16.156Z,5.59
2018-03-30T22:04:43.695Z,5.67
2018-03-30T22:07:11.248Z,5.77
2018-03-30T22:09:38.785Z,5.51
2018-03-30T22:12:07.128Z,5.60
2018-03-30T22:14:34.975Z,5.64
2018-03-30T22:17:02.530Z,5.54
2018-03-30T22:19:30.068Z,5.63
2018-03-30T22:21:59.255Z,5.44
2018-03-30T22:24:27.923Z,5.31
2018-03-30T22:26:56.304Z,5.28
2018-03-30T22:29:24.613Z,5.28
2018-03-30T22:31:52.901Z,5.27
2018-03-30T22:34:20.463Z,5.27
2018-03-30T22:36:48.023Z,5.22
2018-03-30T22:39:15.603Z,5.16
2018-03-30T22:41:43.139Z,5.13
2018-03-30T22:44:10.667Z,5.17
2018-03-30T22:46:38.207Z,5.15
2018-03-30T22:49:05.759Z,5.07
2018-03-30T22:51:34.045Z,5.07
2018-03-30T22:54:01.582Z,5.06
2018-03-30T22:56:29.131Z,5.15
2018-03-30T22:58:56.686Z,5.14
2018-03-30T23:01:24.259Z,5.10
2018-03-30T23:03:52.233Z,5.05
2018-03-30T23:06:21.267Z,5.03
2018-03-30T23:08:49.613Z,5.02
2018-03-30T23:11:17.898Z,4.98
2018-03-30T23:13:45.471Z,5.03
2018-03-30T23:16:12.979Z,4.91
2018-03-30T23:18:40.543Z,4.93
2018-03-30T23:21:08.051Z,4.96
2018-03-30T23:23:35.597Z,4.94
2018-03-30T23:26:03.141Z,4.93
2018-03-30T23:28:30.690Z,4.82
2018-03-30T23:30:59.016Z,4.94
2018-03-30T23:33:26.528Z,4.95
2018-03-30T23:35:54.057Z,4.83
2018-03-30T23:38:21.607Z,4.93
2018-03-30T23:40:49.121Z,4.95
2018-03-30T23:43:16.656Z,4.96
2018-03-30T23:45:44.995Z,4.90
2018-03-30T23:48:12.542Z,4.84
2018-03-30T23:50:40.069Z,4.86
2018-03-30T23:53:07.640Z,4.84
2018-03-30T23:55:35.196Z,4.72
2018-03-30T23:58:02.728Z,4.74
